createdAt,value
2018-04-10T00:00:50.685Z,14.10
2018-04-10T00:04:54.169Z,14.20
2018-04-10T00:08:56.902Z,14.20
2018-04-10T00:12:59.419Z,14.10
2018-04-10T00:17:01.970Z,14.10
2018-04-10T00:21:04.491Z,14.10
2018-04-10T00:25:07.042Z,13.90
2018-04-10T00:29:09.554Z,13.70
2018-04-10T00:33:12.115Z,13.60
2018-04-10T00:37:14.638Z,13.50
2018-04-10T00:41:17.283Z,13.50
2018-04-10T00:45:20.557Z,13.30
2018-04-10T00:49:23.110Z,13.30
2018-04-10T00:53:35.265Z,13.20
2018-04-10T00:57:38.830Z,13.10
2018-04-10T01:01:41.352Z,13.00
2018-04-10T01:05:43.987Z,13.00
2018-04-10T01:09:46.530Z,13.00
2018-04-10T01:13:49.089Z,13.00
2018-04-10T01:17:52.374Z,13.00
2018-04-10T01:21:54.928Z,12.90
2018-04-10T01:25:58.205Z,13.00
2018-04-10T01:30:01.734Z,12.90
2018-04-10T01:34:04.252Z,13.00
2018-04-10T01:38:06.882Z,13.10
2018-04-10T01:42:10.166Z,12.90
2018-04-10T01:46:12.827Z,12.80
2018-04-10T01:50:15.342Z,12.60
2018-04-10T01:54:17.893Z,12.70
2018-04-10T01:58:20.406Z,12.70
2018-04-10T02:02:23.026Z,12.50
2018-04-10T02:06:26.306Z,12.30
2018-04-10T02:10:46.549Z,12.20
2018-04-10T02:14:49.089Z,12.20
2018-04-10T02:18:52.407Z,12.10
2018-04-10T02:22:55.694Z,12.10
2018-04-10T02:26:58.249Z,12.10
2018-04-10T02:31:00.766Z,12.10
2018-04-10T02:35:03.315Z,12.30
2018-04-10T02:39:05.837Z,12.10
2018-04-10T02:43:08.414Z,12.10
2018-04-10T02:47:10.926Z,11.90
2018-04-10T02:51:13.473Z,11.80
2018-04-10T02:55:15.986Z,11.70
2018-04-10T02:59:19.130Z,11.70
2018-04-10T03:03:21.734Z,11.70
2018-04-10T03:07:24.386Z,11.80
2018-04-10T03:11:26.926Z,11.60
2018-04-10T03:15:29.470Z,11.50
2018-04-10T03:19:32.009Z,11.50
2018-04-10T03:23:35.026Z,11.50
2018-04-10T03:27:37.549Z,11.50
2018-04-10T03:31:40.116Z,11.30
2018-04-10T03:35:42.641Z,11.00
2018-04-10T03:39:45.300Z,11.00
2018-04-10T03:43:47.846Z,11.20
2018-04-10T03:47:50.405Z,11.30
2018-04-10T03:51:52.921Z,11.30
2018-04-10T03:55:55.472Z,11.20
2018-04-10T04:00:01.926Z,11.00
2018-04-10T04:04:04.527Z,11.00
2018-04-10T04:08:07.058Z,10.90
2018-04-10T04:12:09.615Z,10.90
2018-04-10T04:16:23.794Z,10.90
2018-04-10T04:20:38.193Z,10.80
2018-04-10T04:24:40.734Z,10.80
2018-04-10T04:28:43.279Z,10.90
2018-04-10T04:32:45.806Z,10.80
2018-04-10T04:36:48.421Z,10.70
2018-04-10T04:40:51.870Z,10.50
2018-04-10T04:44:54.421Z,10.50
2018-04-10T04:48:56.939Z,10.40
2018-04-10T04:52:59.573Z,10.30
2018-04-10T04:57:02.337Z,10.30
2018-04-10T05:01:05.731Z,10.40
2018-04-10T05:05:08.278Z,10.40
2018-04-10T05:09:10.818Z,10.40
2018-04-10T05:13:13.337Z,10.40
2018-04-10T05:17:15.966Z,10.60
2018-04-10T05:21:18.489Z,10.90
2018-04-10T05:25:21.142Z,10.80
2018-04-10T05:29:23.662Z,10.70
2018-04-10T05:33:26.333Z,10.60
2018-04-10T05:37:28.882Z,10.80
2018-04-10T05:41:31.455Z,11.10
2018-04-10T05:45:33.986Z,11.10
2018-04-10T05:49:36.532Z,11.10
2018-04-10T05:53:39.051Z,11.10
2018-04-10T05:57:41.598Z,11.00
2018-04-10T06:01:44.108Z,10.90
2018-04-10T06:05:46.721Z,11.20
2018-04-10T06:09:49.247Z,11.50
2018-04-10T06:13:51.884Z,11.50
2018-04-10T06:17:54.410Z,11.30
2018-04-10T06:21:56.955Z,11.20
2018-04-10T06:25:59.484Z,11.20
2018-04-10T06:30:02.806Z,11.40
2018-04-10T06:34:05.326Z,11.30
2018-04-10T06:38:07.954Z,11.50
2018-04-10T06:42:10.467Z,11.60
2018-04-10T06:46:13.099Z,11.90
2018-04-10T06:50:15.668Z,12.10
2018-04-10T06:54:18.226Z,12.30
2018-04-10T06:58:20.741Z,12.30
2018-04-10T07:02:23.310Z,12.30
2018-04-10T07:06:25.882Z,12.20
2018-04-10T07:10:28.460Z,12.20
2018-04-10T07:14:30.969Z,12.30
2018-04-10T07:18:33.528Z,12.60
2018-04-10T07:22:36.048Z,12.80
2018-04-10T07:26:38.603Z,13.00
2018-04-10T07:30:41.126Z,13.10
2018-04-10T07:34:43.676Z,13.30
2018-04-10T07:38:46.202Z,13.40
2018-04-10T07:42:48.843Z,13.80
2018-04-10T07:46:51.366Z,14.00
2018-04-10T07:50:54.094Z,14.30
2018-04-10T07:54:56.615Z,14.70
2018-04-10T07:58:59.154Z,15.70
2018-04-10T08:03:01.694Z,17.40
2018-04-10T08:07:04.374Z,18.80
2018-04-10T08:11:08.853Z,18.80
2018-04-10T08:15:11.494Z,18.60
2018-04-10T08:19:14.162Z,19.10
2018-04-10T08:23:16.726Z,19.60
2018-04-10T08:27:19.257Z,19.60
2018-04-10T08:31:21.891Z,19.60
2018-04-10T08:35:24.414Z,19.00
2018-04-10T08:39:26.974Z,18.40
2018-04-10T08:43:29.503Z,17.90
2018-04-10T08:47:32.054Z,17.30
2018-04-10T08:51:35.344Z,16.90
2018-04-10T08:55:38.067Z,16.90
2018-04-10T08:59:40.634Z,16.90
2018-04-10T09:03:43.314Z,16.80
2018-04-10T09:07:46.598Z,16.70
2018-04-10T09:11:49.147Z,16.60
2018-04-10T09:15:51.667Z,16.40
2018-04-10T09:19:54.300Z,16.40
2018-04-10T09:23:56.814Z,16.40
2018-04-10T09:27:59.372Z,16.30
2018-04-10T09:32:03.106Z,16.70
2018-04-10T09:36:05.662Z,16.60
2018-04-10T09:40:08.170Z,16.90
2018-04-10T09:44:10.803Z,17.10
2018-04-10T09:48:18.592Z,17.10
2018-04-10T09:52:21.219Z,17.10
2018-04-10T09:56:23.731Z,17.10
2018-04-10T10:00:32.018Z,17.10
2018-04-10T10:04:35.282Z,17.10
2018-04-10T10:08:37.922Z,17.10
2018-04-10T10:12:41.199Z,17.00
2018-04-10T10:16:43.770Z,16.90
2018-04-10T10:20:47.231Z,17.00
2018-04-10T10:24:49.786Z,16.90
2018-04-10T10:28:53.070Z,17.10
2018-04-10T10:32:55.611Z,17.00
2018-04-10T10:36:58.916Z,17.30
2018-04-10T10:41:03.549Z,17.20
2018-04-10T10:45:06.064Z,17.40
2018-04-10T10:49:08.614Z,17.40
2018-04-10T10:53:11.889Z,17.30
2018-04-10T10:57:14.455Z,17.20
2018-04-10T11:01:17.049Z,17.20
2018-04-10T11:05:20.362Z,17.60
2018-04-10T11:09:41.802Z,17.50
2018-04-10T11:13:46.334Z,17.90
2018-04-10T11:17:49.566Z,18.50
2018-04-10T11:21:52.417Z,18.80
2018-04-10T11:25:55.686Z,19.10
2018-04-10T11:29:58.360Z,19.10
2018-04-10T11:34:00.880Z,19.30
2018-04-10T11:38:09.562Z,19.00
2018-04-10T11:42:12.076Z,18.80
2018-04-10T11:46:14.767Z,18.70
2018-04-10T11:50:17.339Z,18.50
2018-04-10T11:54:19.882Z,18.70
2018-04-10T11:58:27.285Z,18.80
2018-04-10T12:02:31.779Z,18.50
2018-04-10T12:06:34.306Z,18.50
2018-04-10T12:10:37.623Z,18.60
2018-04-10T12:14:40.910Z,18.60
2018-04-10T12:18:43.450Z,18.60
2018-04-10T12:22:45.981Z,18.70
2018-04-10T12:26:49.480Z,18.80
2018-04-10T12:30:52.758Z,19.30
2018-04-10T12:35:10.586Z,19.20
2018-04-10T12:39:14.034Z,19.20
2018-04-10T12:43:24.946Z,18.80
2018-04-10T12:47:48.179Z,18.60
2018-04-10T12:52:01.271Z,18.60
2018-04-10T12:56:06.981Z,18.80
2018-04-10T13:00:09.515Z,18.80
2018-04-10T13:04:12.027Z,18.90
2018-04-10T13:08:15.389Z,19.50
2018-04-10T13:12:27.866Z,19.40
2018-04-10T13:16:31.368Z,19.70
2018-04-10T13:20:33.874Z,19.60
2018-04-10T13:24:40.114Z,19.80
2018-04-10T13:28:46.874Z,20.00
2018-04-10T13:32:49.426Z,20.00
2018-04-10T13:36:52.702Z,20.00
2018-04-10T13:40:55.378Z,19.90
2018-04-10T13:45:05.870Z,20.10
2018-04-10T13:49:08.450Z,20.20
2018-04-10T13:53:22.029Z,20.10
2018-04-10T13:57:25.499Z,20.30
2018-04-10T14:01:28.015Z,20.30
2018-04-10T14:05:34.327Z,20.20
2018-04-10T14:09:36.841Z,19.70
2018-04-10T14:13:44.257Z,19.50
2018-04-10T14:17:46.783Z,19.60
2018-04-10T14:21:54.002Z,19.70
2018-04-10T14:25:59.246Z,19.60
2018-04-10T14:30:01.958Z,19.60
2018-04-10T14:34:06.486Z,19.50
2018-04-10T14:38:09.118Z,19.40
2018-04-10T14:42:15.814Z,19.30
2018-04-10T14:46:26.623Z,19.20
2018-04-10T14:50:29.159Z,19.10
2018-04-10T14:54:33.570Z,19.20
2018-04-10T14:58:48.515Z,19.20
2018-04-10T15:02:51.059Z,19.20
2018-04-10T15:06:54.599Z,19.10
2018-04-10T15:10:57.211Z,19.10
2018-04-10T15:15:07.335Z,19.00
2018-04-10T15:19:09.927Z,18.90
2018-04-10T15:23:13.215Z,18.80
2018-04-10T15:27:15.906Z,18.80
2018-04-10T15:31:18.479Z,18.70
2018-04-10T15:35:26.512Z,18.70
2018-04-10T15:39:31.059Z,18.60
2018-04-10T15:43:41.395Z,18.40
2018-04-10T15:47:43.946Z,18.30
2018-04-10T15:51:47.258Z,18.30
2018-04-10T15:55:51.795Z,18.20
2018-04-10T15:59:58.602Z,18.30
2018-04-10T16:04:14.353Z,18.30
2018-04-10T16:08:16.946Z,18.40
2018-04-10T16:12:20.227Z,18.30
2018-04-10T16:16:23.850Z,18.20
2018-04-10T16:20:28.313Z,18.20
2018-04-10T16:24:32.883Z,18.10
2018-04-10T16:28:35.393Z,18.00
2018-04-10T16:32:37.934Z,18.00
2018-04-10T16:36:40.454Z,18.00
2018-04-10T16:40:43.114Z,18.10
2018-04-10T16:44:45.639Z,18.10
2018-04-10T16:48:49.032Z,18.00
2018-04-10T16:52:51.557Z,18.00
2018-04-10T16:56:54.258Z,18.00
2018-04-10T17:00:58.803Z,17.90
2018-04-10T17:05:02.298Z,17.90
2018-04-10T17:09:07.678Z,17.80
2018-04-10T17:13:10.244Z,17.70
2018-04-10T17:17:21.283Z,17.40
2018-04-10T17:21:28.880Z,17.30
2018-04-10T17:25:32.338Z,17.30
2018-04-10T17:29:40.106Z,17.30
2018-04-10T17:33:42.623Z,17.10
2018-04-10T17:37:49.359Z,16.80
2018-04-10T17:41:52.255Z,16.80
2018-04-10T17:45:58.007Z,16.70
2018-04-10T17:50:00.531Z,16.60
2018-04-10T17:54:03.859Z,16.50
2018-04-10T17:58:12.315Z,16.50
2018-04-10T18:02:15.888Z,16.40
2018-04-10T18:06:18.402Z,16.50
2018-04-10T18:10:31.726Z,16.50
2018-04-10T18:14:34.246Z,16.40
2018-04-10T18:18:37.825Z,16.30
2018-04-10T18:22:41.102Z,16.10
2018-04-10T18:26:43.646Z,16.00
2018-04-10T18:30:48.207Z,15.80
2018-04-10T18:34:51.586Z,15.80
2018-04-10T18:38:59.661Z,15.70
2018-04-10T18:43:06.966Z,15.50
2018-04-10T18:47:09.498Z,15.40
2018-04-10T18:51:12.893Z,15.30
2018-04-10T18:55:15.436Z,15.30
2018-04-10T18:59:18.354Z,15.30
2018-04-10T19:03:21.844Z,15.20
2018-04-10T19:07:24.399Z,15.10
2018-04-10T19:11:30.710Z,14.90
2018-04-10T19:15:33.279Z,14.70
2018-04-10T19:19:37.034Z,14.70
2018-04-10T19:23:39.599Z,14.60
2018-04-10T19:27:54.169Z,14.40
2018-04-10T19:31:56.726Z,14.30
2018-04-10T19:35:59.290Z,14.20
2018-04-10T19:40:02.148Z,13.70
2018-04-10T19:44:04.675Z,13.50
2018-04-10T19:48:07.229Z,13.60
2018-04-10T19:52:10.703Z,13.50
2018-04-10T19:56:13.309Z,13.50
2018-04-10T20:00:15.830Z,13.20
2018-04-10T20:04:19.705Z,12.80
2018-04-10T20:08:22.243Z,12.80
2018-04-10T20:12:26.750Z,12.90
2018-04-10T20:16:29.282Z,12.90
2018-04-10T20:20:41.969Z,12.90
2018-04-10T20:24:44.485Z,12.80
2018-04-10T20:28:47.139Z,12.60
2018-04-10T20:32:50.437Z,12.50
2018-04-10T20:36:53.770Z,12.50
2018-04-10T20:40:57.070Z,12.40
2018-04-10T20:44:59.622Z,12.40
2018-04-10T20:49:02.176Z,12.10
2018-04-10T20:53:04.734Z,12.10
2018-04-10T20:57:07.252Z,12.00
2018-04-10T21:01:09.804Z,12.00
2018-04-10T21:05:12.346Z,12.00
2018-04-10T21:09:15.662Z,11.70
2018-04-10T21:13:19.954Z,11.60
2018-04-10T21:17:25.454Z,11.50
2018-04-10T21:21:28.021Z,11.50
2018-04-10T21:25:33.938Z,11.60
2018-04-10T21:29:37.451Z,11.70
2018-04-10T21:33:40.107Z,11.70
2018-04-10T21:37:43.431Z,11.90
2018-04-10T21:41:45.969Z,11.80
2018-04-10T21:45:48.488Z,12.00
2018-04-10T21:49:51.139Z,12.00
2018-04-10T21:53:53.654Z,12.10
2018-04-10T21:57:56.214Z,12.20
2018-04-10T22:01:59.762Z,12.20
2018-04-10T22:06:02.398Z,12.20
2018-04-10T22:10:05.685Z,12.30
2018-04-10T22:14:08.341Z,12.20
2018-04-10T22:18:10.852Z,12.30
2018-04-10T22:22:13.407Z,12.20
2018-04-10T22:26:15.922Z,12.20
2018-04-10T22:30:18.461Z,12.20
2018-04-10T22:34:20.975Z,12.20
2018-04-10T22:38:23.532Z,12.10
2018-04-10T22:42:26.820Z,12.10
2018-04-10T22:46:29.451Z,12.00
2018-04-10T22:50:32.735Z,12.10
2018-04-10T22:54:37.016Z,12.10
2018-04-10T22:58:39.535Z,12.10
2018-04-10T23:02:42.865Z,12.20
2018-04-10T23:06:46.155Z,12.00
2018-04-10T23:10:48.711Z,12.00
2018-04-10T23:14:52.003Z,11.30
2018-04-10T23:18:54.564Z,11.30
2018-04-10T23:22:57.091Z,11.10
2018-04-10T23:26:59.658Z,11.00
2018-04-10T23:31:02.956Z,11.00
2018-04-10T23:35:05.527Z,10.90
2018-04-10T23:39:08.037Z,11.10
2018-04-10T23:43:10.594Z,11.00
2018-04-10T23:47:13.119Z,10.90
2018-04-10T23:51:16.435Z,10.90
2018-04-10T23:55:19.718Z,10.90
2018-04-10T23:59:22.287Z,10.80
